sensor_id;sensor_type;location;lat;lon;timestamp;temperature;humidity
52739;DHT22;52466;40.122;18.318;2022-07-29T00:02:39;27.20;71.90
52739;DHT22;52466;40.122;18.318;2022-07-29T00:05:47;27.10;72.10
52739;DHT22;52466;40.122;18.318;2022-07-29T00:08:54;27.10;72.20
52739;DHT22;52466;40.122;18.318;2022-07-29T00:12:03;27.00;72.30
52739;DHT22;52466;40.122;18.318;2022-07-29T00:15:11;27.10;72.40
52739;DHT22;52466;40.122;18.318;2022-07-29T00:18:18;27.00;72.50
52739;DHT22;52466;40.122;18.318;2022-07-29T00:21:26;27.00;72.60
52739;DHT22;52466;40.122;18.318;2022-07-29T00:24:34;27.00;72.70
52739;DHT22;52466;40.122;18.318;2022-07-29T00:27:41;27.00;72.80
52739;DHT22;52466;40.122;18.318;2022-07-29T00:30:49;27.00;72.80
52739;DHT22;52466;40.122;18.318;2022-07-29T00:33:57;27.00;72.90
52739;DHT22;52466;40.122;18.318;2022-07-29T00:37:04;27.00;72.80
52739;DHT22;52466;40.122;18.318;2022-07-29T00:40:12;27.00;72.80
52739;DHT22;52466;40.122;18.318;2022-07-29T00:43:20;27.00;72.90
52739;DHT22;52466;40.122;18.318;2022-07-29T00:46:27;27.00;73.00
52739;DHT22;52466;40.122;18.318;2022-07-29T00:49:36;27.00;73.10
52739;DHT22;52466;40.122;18.318;2022-07-29T00:52:44;27.00;73.20
52739;DHT22;52466;40.122;18.318;2022-07-29T00:55:53;27.00;73.40
52739;DHT22;52466;40.122;18.318;2022-07-29T00:59:02;27.00;73.50
52739;DHT22;52466;40.122;18.318;2022-07-29T01:02:09;27.00;73.60
52739;DHT22;52466;40.122;18.318;2022-07-29T01:05:20;27.00;73.80
52739;DHT22;52466;40.122;18.318;2022-07-29T01:08:28;27.00;73.90
52739;DHT22;52466;40.122;18.318;2022-07-29T01:11:36;27.00;73.90
52739;DHT22;52466;40.122;18.318;2022-07-29T01:14:45;27.00;73.90
52739;DHT22;52466;40.122;18.318;2022-07-29T01:30:54;27.00;74.00
52739;DHT22;52466;40.122;18.318;2022-07-29T01:34:05;27.00;74.00
52739;DHT22;52466;40.122;18.318;2022-07-29T01:37:36;27.00;74.10
52739;DHT22;52466;40.122;18.318;2022-07-29T01:40:49;27.00;74.20
52739;DHT22;52466;40.122;18.318;2022-07-29T01:44:10;27.00;74.30
52739;DHT22;52466;40.122;18.318;2022-07-29T01:47:21;27.00;74.40
52739;DHT22;52466;40.122;18.318;2022-07-29T01:50:35;27.00;74.40
52739;DHT22;52466;40.122;18.318;2022-07-29T01:53:50;27.00;74.50
52739;DHT22;52466;40.122;18.318;2022-07-29T01:57:02;27.00;74.50
52739;DHT22;52466;40.122;18.318;2022-07-29T02:00:12;27.00;74.50
52739;DHT22;52466;40.122;18.318;2022-07-29T02:03:21;27.00;74.60
52739;DHT22;52466;40.122;18.318;2022-07-29T02:06:32;27.00;74.70
52739;DHT22;52466;40.122;18.318;2022-07-29T02:09:41;27.00;74.90
52739;DHT22;52466;40.122;18.318;2022-07-29T02:12:50;26.90;75.00
52739;DHT22;52466;40.122;18.318;2022-07-29T02:15:58;26.90;75.20
52739;DHT22;52466;40.122;18.318;2022-07-29T02:19:08;26.90;75.30
52739;DHT22;52466;40.122;18.318;2022-07-29T02:22:21;27.00;75.40
52739;DHT22;52466;40.122;18.318;2022-07-29T02:25:31;27.00;75.50
52739;DHT22;52466;40.122;18.318;2022-07-29T02:28:40;27.00;75.50
52739;DHT22;52466;40.122;18.318;2022-07-29T02:31:49;27.00;75.50
52739;DHT22;52466;40.122;18.318;2022-07-29T02:34:58;26.90;75.70
52739;DHT22;52466;40.122;18.318;2022-07-29T02:38:08;26.90;75.80
52739;DHT22;52466;40.122;18.318;2022-07-29T02:41:46;26.90;76.00
52739;DHT22;52466;40.122;18.318;2022-07-29T02:44:54;26.80;76.10
52739;DHT22;52466;40.122;18.318;2022-07-29T02:48:09;26.90;76.20
52739;DHT22;52466;40.122;18.318;2022-07-29T02:51:23;26.80;76.30
52739;DHT22;52466;40.122;18.318;2022-07-29T02:54:39;26.80;76.20
52739;DHT22;52466;40.122;18.318;2022-07-29T03:01:15;26.90;76.20
52739;DHT22;52466;40.122;18.318;2022-07-29T03:04:24;26.80;76.30
52739;DHT22;52466;40.122;18.318;2022-07-29T03:07:34;26.80;76.20
52739;DHT22;52466;40.122;18.318;2022-07-29T03:10:46;26.70;76.20
52739;DHT22;52466;40.122;18.318;2022-07-29T03:13:54;26.70;76.40
52739;DHT22;52466;40.122;18.318;2022-07-29T03:17:02;26.60;76.50
52739;DHT22;52466;40.122;18.318;2022-07-29T03:20:13;26.60;76.70
52739;DHT22;52466;40.122;18.318;2022-07-29T03:23:22;26.60;76.90
52739;DHT22;52466;40.122;18.318;2022-07-29T03:26:31;26.50;77.00
52739;DHT22;52466;40.122;18.318;2022-07-29T03:29:38;26.50;77.20
52739;DHT22;52466;40.122;18.318;2022-07-29T03:32:46;26.50;77.30
52739;DHT22;52466;40.122;18.318;2022-07-29T03:35:54;26.40;77.50
52739;DHT22;52466;40.122;18.318;2022-07-29T03:38:57;26.30;77.60
52739;DHT22;52466;40.122;18.318;2022-07-29T03:42:06;26.30;77.70
52739;DHT22;52466;40.122;18.318;2022-07-29T03:45:17;26.30;77.80
52739;DHT22;52466;40.122;18.318;2022-07-29T03:48:28;26.30;77.90
52739;DHT22;52466;40.122;18.318;2022-07-29T03:51:38;26.30;77.90
52739;DHT22;52466;40.122;18.318;2022-07-29T03:54:46;26.30;77.90
52739;DHT22;52466;40.122;18.318;2022-07-29T03:57:57;26.30;77.90
52739;DHT22;52466;40.122;18.318;2022-07-29T04:01:05;26.20;77.90
52739;DHT22;52466;40.122;18.318;2022-07-29T04:04:13;26.30;77.90
52739;DHT22;52466;40.122;18.318;2022-07-29T04:07:21;26.30;77.80
52739;DHT22;52466;40.122;18.318;2022-07-29T04:10:28;26.40;77.80
52739;DHT22;52466;40.122;18.318;2022-07-29T04:13:36;26.40;77.70
52739;DHT22;52466;40.122;18.318;2022-07-29T04:16:44;26.50;77.60
52739;DHT22;52466;40.122;18.318;2022-07-29T04:19:51;26.50;77.60
52739;DHT22;52466;40.122;18.318;2022-07-29T04:22:59;26.50;77.50
52739;DHT22;52466;40.122;18.318;2022-07-29T04:26:07;26.60;77.40
52739;DHT22;52466;40.122;18.318;2022-07-29T04:29:18;26.60;77.30
52739;DHT22;52466;40.122;18.318;2022-07-29T04:32:26;26.70;77.20
52739;DHT22;52466;40.122;18.318;2022-07-29T04:35:36;26.80;77.00
52739;DHT22;52466;40.122;18.318;2022-07-29T04:38:44;26.90;76.90
52739;DHT22;52466;40.122;18.318;2022-07-29T04:41:52;27.00;76.60
52739;DHT22;52466;40.122;18.318;2022-07-29T04:44:59;27.20;76.30
52739;DHT22;52466;40.122;18.318;2022-07-29T04:48:07;27.40;75.80
52739;DHT22;52466;40.122;18.318;2022-07-29T04:51:15;27.50;75.40
52739;DHT22;52466;40.122;18.318;2022-07-29T04:54:23;27.70;75.00
52739;DHT22;52466;40.122;18.318;2022-07-29T04:57:31;27.90;74.50
52739;DHT22;52466;40.122;18.318;2022-07-29T05:00:39;28.30;73.80
52739;DHT22;52466;40.122;18.318;2022-07-29T05:03:46;28.90;72.40
52739;DHT22;52466;40.122;18.318;2022-07-29T05:06:54;29.40;70.90
52739;DHT22;52466;40.122;18.318;2022-07-29T05:10:02;30.00;69.30
52739;DHT22;52466;40.122;18.318;2022-07-29T05:13:11;30.50;67.90
52739;DHT22;52466;40.122;18.318;2022-07-29T05:16:19;31.20;65.70
52739;DHT22;52466;40.122;18.318;2022-07-29T05:19:26;31.80;63.70
52739;DHT22;52466;40.122;18.318;2022-07-29T05:22:34;32.50;61.30
52739;DHT22;52466;40.122;18.318;2022-07-29T05:25:42;33.10;59.50
52739;DHT22;52466;40.122;18.318;2022-07-29T05:28:50;33.70;57.60
52739;DHT22;52466;40.122;18.318;2022-07-29T05:31:57;34.40;56.00
52739;DHT22;52466;40.122;18.318;2022-07-29T05:35:06;35.50;53.40
52739;DHT22;52466;40.122;18.318;2022-07-29T05:38:13;37.00;49.70
52739;DHT22;52466;40.122;18.318;2022-07-29T05:41:21;38.50;45.80
52739;DHT22;52466;40.122;18.318;2022-07-29T05:44:29;40.00;42.60
52739;DHT22;52466;40.122;18.318;2022-07-29T05:47:36;41.30;39.80
52739;DHT22;52466;40.122;18.318;2022-07-29T05:50:44;42.40;37.50
52739;DHT22;52466;40.122;18.318;2022-07-29T05:53:49;43.10;35.60
52739;DHT22;52466;40.122;18.318;2022-07-29T05:56:56;43.90;34.20
52739;DHT22;52466;40.122;18.318;2022-07-29T06:00:05;44.60;33.10
52739;DHT22;52466;40.122;18.318;2022-07-29T06:03:15;45.50;31.40
52739;DHT22;52466;40.122;18.318;2022-07-29T06:06:18;46.30;30.00
52739;DHT22;52466;40.122;18.318;2022-07-29T06:09:26;46.80;28.80
52739;DHT22;52466;40.122;18.318;2022-07-29T06:12:33;47.10;28.20
52739;DHT22;52466;40.122;18.318;2022-07-29T06:15:42;47.40;27.50
52739;DHT22;52466;40.122;18.318;2022-07-29T06:18:44;47.90;26.80
52739;DHT22;52466;40.122;18.318;2022-07-29T06:21:52;48.10;26.30
52739;DHT22;52466;40.122;18.318;2022-07-29T06:25:01;48.40;25.70
52739;DHT22;52466;40.122;18.318;2022-07-29T06:28:09;48.00;25.50
52739;DHT22;52466;40.122;18.318;2022-07-29T06:31:17;47.40;25.40
52739;DHT22;52466;40.122;18.318;2022-07-29T06:34:24;46.00;26.10
52739;DHT22;52466;40.122;18.318;2022-07-29T06:37:32;44.60;27.20
52739;DHT22;52466;40.122;18.318;2022-07-29T06:40:44;43.00;28.70
52739;DHT22;52466;40.122;18.318;2022-07-29T06:44:11;41.70;30.30
52739;DHT22;52466;40.122;18.318;2022-07-29T06:47:18;40.90;31.30
52739;DHT22;52466;40.122;18.318;2022-07-29T06:50:27;40.40;31.90
52739;DHT22;52466;40.122;18.318;2022-07-29T06:53:35;39.80;32.70
52739;DHT22;52466;40.122;18.318;2022-07-29T06:56:42;39.30;33.20
52739;DHT22;52466;40.122;18.318;2022-07-29T06:59:50;39.20;33.20
52739;DHT22;52466;40.122;18.318;2022-07-29T07:02:58;39.10;33.30
52739;DHT22;52466;40.122;18.318;2022-07-29T07:06:06;38.80;33.70
52739;DHT22;52466;40.122;18.318;2022-07-29T07:09:13;38.70;34.10
52739;DHT22;52466;40.122;18.318;2022-07-29T07:12:21;38.90;34.10
52739;DHT22;52466;40.122;18.318;2022-07-29T07:15:29;39.00;33.70
52739;DHT22;52466;40.122;18.318;2022-07-29T07:18:36;39.10;33.40
52739;DHT22;52466;40.122;18.318;2022-07-29T07:21:44;39.20;33.50
52739;DHT22;52466;40.122;18.318;2022-07-29T07:24:52;39.30;33.50
52739;DHT22;52466;40.122;18.318;2022-07-29T07:27:59;39.40;33.20
52739;DHT22;52466;40.122;18.318;2022-07-29T07:31:07;39.30;33.20
52739;DHT22;52466;40.122;18.318;2022-07-29T07:34:15;39.50;33.30
52739;DHT22;52466;40.122;18.318;2022-07-29T07:37:22;39.70;33.00
52739;DHT22;52466;40.122;18.318;2022-07-29T07:40:32;39.50;32.70
52739;DHT22;52466;40.122;18.318;2022-07-29T07:43:39;39.40;32.80
52739;DHT22;52466;40.122;18.318;2022-07-29T07:46:47;39.10;32.80
52739;DHT22;52466;40.122;18.318;2022-07-29T07:49:55;38.90;32.70
52739;DHT22;52466;40.122;18.318;2022-07-29T07:53:05;38.80;32.80
52739;DHT22;52466;40.122;18.318;2022-07-29T07:56:16;38.80;32.40
52739;DHT22;52466;40.122;18.318;2022-07-29T07:59:24;38.60;32.50
52739;DHT22;52466;40.122;18.318;2022-07-29T08:02:31;38.40;32.90
52739;DHT22;52466;40.122;18.318;2022-07-29T08:05:40;38.20;33.10
52739;DHT22;52466;40.122;18.318;2022-07-29T08:08:47;38.10;33.20
52739;DHT22;52466;40.122;18.318;2022-07-29T08:11:56;38.00;33.50
52739;DHT22;52466;40.122;18.318;2022-07-29T08:15:05;37.50;34.10
52739;DHT22;52466;40.122;18.318;2022-07-29T08:18:14;37.20;34.50
52739;DHT22;52466;40.122;18.318;2022-07-29T08:21:23;37.00;34.70
52739;DHT22;52466;40.122;18.318;2022-07-29T08:24:34;37.00;34.50
52739;DHT22;52466;40.122;18.318;2022-07-29T08:27:51;36.80;34.70
52739;DHT22;52466;40.122;18.318;2022-07-29T08:30:58;36.60;34.90
52739;DHT22;52466;40.122;18.318;2022-07-29T08:34:07;36.50;35.40
52739;DHT22;52466;40.122;18.318;2022-07-29T08:37:14;36.50;36.10
52739;DHT22;52466;40.122;18.318;2022-07-29T08:40:24;36.40;36.70
52739;DHT22;52466;40.122;18.318;2022-07-29T08:43:34;36.20;36.80
52739;DHT22;52466;40.122;18.318;2022-07-29T08:46:45;36.00;37.40
52739;DHT22;52466;40.122;18.318;2022-07-29T08:49:52;36.00;37.30
52739;DHT22;52466;40.122;18.318;2022-07-29T08:53:00;35.90;37.00
52739;DHT22;52466;40.122;18.318;2022-07-29T08:56:12;35.70;36.80
52739;DHT22;52466;40.122;18.318;2022-07-29T08:59:22;35.50;36.90
52739;DHT22;52466;40.122;18.318;2022-07-29T09:02:36;35.50;35.60
52739;DHT22;52466;40.122;18.318;2022-07-29T09:05:46;35.50;35.40
52739;DHT22;52466;40.122;18.318;2022-07-29T09:08:58;35.60;35.80
52739;DHT22;52466;40.122;18.318;2022-07-29T09:12:06;35.60;36.20
52739;DHT22;52466;40.122;18.318;2022-07-29T09:15:15;35.60;36.20
52739;DHT22;52466;40.122;18.318;2022-07-29T09:21:45;35.70;35.30
52739;DHT22;52466;40.122;18.318;2022-07-29T09:25:08;35.60;34.90
52739;DHT22;52466;40.122;18.318;2022-07-29T09:28:18;35.50;34.60
52739;DHT22;52466;40.122;18.318;2022-07-29T09:31:33;35.50;34.30
52739;DHT22;52466;40.122;18.318;2022-07-29T09:34:41;35.50;34.70
52739;DHT22;52466;40.122;18.318;2022-07-29T09:37:49;35.50;34.40
52739;DHT22;52466;40.122;18.318;2022-07-29T09:40:59;35.50;34.00
52739;DHT22;52466;40.122;18.318;2022-07-29T09:44:07;35.40;34.40
52739;DHT22;52466;40.122;18.318;2022-07-29T09:47:16;35.40;33.90
52739;DHT22;52466;40.122;18.318;2022-07-29T09:50:35;35.40;33.20
52739;DHT22;52466;40.122;18.318;2022-07-29T09:53:43;35.40;33.60
52739;DHT22;52466;40.122;18.318;2022-07-29T09:56:51;35.40;33.70
52739;DHT22;52466;40.122;18.318;2022-07-29T10:00:03;35.40;34.00
52739;DHT22;52466;40.122;18.318;2022-07-29T10:03:16;35.40;34.40
52739;DHT22;52466;40.122;18.318;2022-07-29T10:06:24;35.40;34.50
52739;DHT22;52466;40.122;18.318;2022-07-29T10:09:32;35.50;34.30
52739;DHT22;52466;40.122;18.318;2022-07-29T10:12:55;35.40;34.10
52739;DHT22;52466;40.122;18.318;2022-07-29T10:16:03;35.40;34.00
52739;DHT22;52466;40.122;18.318;2022-07-29T10:19:12;35.40;33.50
52739;DHT22;52466;40.122;18.318;2022-07-29T10:22:21;35.50;33.50
52739;DHT22;52466;40.122;18.318;2022-07-29T10:25:29;35.30;33.80
52739;DHT22;52466;40.122;18.318;2022-07-29T10:28:37;35.30;33.80
52739;DHT22;52466;40.122;18.318;2022-07-29T10:38:52;35.50;33.30
52739;DHT22;52466;40.122;18.318;2022-07-29T10:42:21;35.50;33.30
52739;DHT22;52466;40.122;18.318;2022-07-29T10:45:31;35.50;33.50
52739;DHT22;52466;40.122;18.318;2022-07-29T10:49:18;35.40;33.10
52739;DHT22;52466;40.122;18.318;2022-07-29T10:56:03;35.50;33.20
52739;DHT22;52466;40.122;18.318;2022-07-29T11:05:52;35.60;32.60
52739;DHT22;52466;40.122;18.318;2022-07-29T11:09:19;35.70;32.90
52739;DHT22;52466;40.122;18.318;2022-07-29T11:12:50;35.70;32.60
52739;DHT22;52466;40.122;18.318;2022-07-29T11:16:00;35.50;32.50
52739;DHT22;52466;40.122;18.318;2022-07-29T11:22:45;35.60;32.90
52739;DHT22;52466;40.122;18.318;2022-07-29T11:29:27;35.80;33.20
52739;DHT22;52466;40.122;18.318;2022-07-29T11:32:37;35.90;33.30
52739;DHT22;52466;40.122;18.318;2022-07-29T11:36:23;36.00;33.20
52739;DHT22;52466;40.122;18.318;2022-07-29T11:39:35;36.00;33.10
52739;DHT22;52466;40.122;18.318;2022-07-29T11:42:40;36.00;32.60
52739;DHT22;52466;40.122;18.318;2022-07-29T11:45:48;35.90;32.30
52739;DHT22;52466;40.122;18.318;2022-07-29T11:48:56;36.00;32.40
52739;DHT22;52466;40.122;18.318;2022-07-29T11:52:03;36.10;32.20
52739;DHT22;52466;40.122;18.318;2022-07-29T11:55:17;36.10;31.50
52739;DHT22;52466;40.122;18.318;2022-07-29T11:58:27;36.00;31.70
52739;DHT22;52466;40.122;18.318;2022-07-29T12:01:35;36.10;32.10
52739;DHT22;52466;40.122;18.318;2022-07-29T12:08:08;36.10;32.00
52739;DHT22;52466;40.122;18.318;2022-07-29T12:11:18;36.10;31.70
52739;DHT22;52466;40.122;18.318;2022-07-29T12:14:31;36.20;31.70
52739;DHT22;52466;40.122;18.318;2022-07-29T12:17:38;36.20;31.70
52739;DHT22;52466;40.122;18.318;2022-07-29T12:20:47;36.30;31.60
52739;DHT22;52466;40.122;18.318;2022-07-29T12:23:56;36.30;31.50
52739;DHT22;52466;40.122;18.318;2022-07-29T12:27:04;36.30;31.50
52739;DHT22;52466;40.122;18.318;2022-07-29T12:30:14;36.30;31.80
52739;DHT22;52466;40.122;18.318;2022-07-29T12:33:25;36.30;32.00
52739;DHT22;52466;40.122;18.318;2022-07-29T12:36:34;36.30;32.40
52739;DHT22;52466;40.122;18.318;2022-07-29T12:39:44;36.20;32.50
52739;DHT22;52466;40.122;18.318;2022-07-29T12:46:14;36.30;32.30
52739;DHT22;52466;40.122;18.318;2022-07-29T12:49:22;36.30;32.20
52739;DHT22;52466;40.122;18.318;2022-07-29T12:52:32;36.20;32.30
52739;DHT22;52466;40.122;18.318;2022-07-29T12:55:44;36.10;32.70
52739;DHT22;52466;40.122;18.318;2022-07-29T12:58:52;36.00;32.80
52739;DHT22;52466;40.122;18.318;2022-07-29T13:02:00;36.00;32.70
52739;DHT22;52466;40.122;18.318;2022-07-29T13:05:09;36.00;33.10
52739;DHT22;52466;40.122;18.318;2022-07-29T13:08:17;36.00;33.70
52739;DHT22;52466;40.122;18.318;2022-07-29T13:11:29;36.00;34.40
52739;DHT22;52466;40.122;18.318;2022-07-29T13:14:43;36.00;34.80
52739;DHT22;52466;40.122;18.318;2022-07-29T13:17:51;36.00;34.70
52739;DHT22;52466;40.122;18.318;2022-07-29T13:21:11;36.00;35.10
52739;DHT22;52466;40.122;18.318;2022-07-29T13:24:19;35.90;35.80
52739;DHT22;52466;40.122;18.318;2022-07-29T13:27:28;35.70;35.80
52739;DHT22;52466;40.122;18.318;2022-07-29T13:30:36;35.70;36.00
52739;DHT22;52466;40.122;18.318;2022-07-29T13:33:45;35.70;35.80
52739;DHT22;52466;40.122;18.318;2022-07-29T13:36:52;35.80;35.60
52739;DHT22;52466;40.122;18.318;2022-07-29T13:40:02;35.80;35.50
52739;DHT22;52466;40.122;18.318;2022-07-29T13:43:11;35.80;35.30
52739;DHT22;52466;40.122;18.318;2022-07-29T13:46:18;35.80;34.90
52739;DHT22;52466;40.122;18.318;2022-07-29T13:49:26;35.70;34.70
52739;DHT22;52466;40.122;18.318;2022-07-29T13:52:34;35.70;34.60
52739;DHT22;52466;40.122;18.318;2022-07-29T13:55:42;35.60;35.10
52739;DHT22;52466;40.122;18.318;2022-07-29T13:58:50;35.50;35.30
52739;DHT22;52466;40.122;18.318;2022-07-29T14:01:58;35.50;35.30
52739;DHT22;52466;40.122;18.318;2022-07-29T14:05:06;35.50;35.30
52739;DHT22;52466;40.122;18.318;2022-07-29T14:08:14;35.50;35.30
52739;DHT22;52466;40.122;18.318;2022-07-29T14:11:22;35.60;35.30
52739;DHT22;52466;40.122;18.318;2022-07-29T14:14:30;35.70;35.50
52739;DHT22;52466;40.122;18.318;2022-07-29T14:17:39;35.70;35.60
52739;DHT22;52466;40.122;18.318;2022-07-29T14:20:47;35.60;35.80
52739;DHT22;52466;40.122;18.318;2022-07-29T14:23:54;35.60;35.80
52739;DHT22;52466;40.122;18.318;2022-07-29T14:27:05;35.60;35.60
52739;DHT22;52466;40.122;18.318;2022-07-29T14:30:13;35.50;35.90
52739;DHT22;52466;40.122;18.318;2022-07-29T14:33:21;35.50;36.40
52739;DHT22;52466;40.122;18.318;2022-07-29T14:36:28;35.50;36.60
52739;DHT22;52466;40.122;18.318;2022-07-29T14:39:36;35.50;36.50
52739;DHT22;52466;40.122;18.318;2022-07-29T14:42:44;35.40;36.40
52739;DHT22;52466;40.122;18.318;2022-07-29T14:45:52;35.40;36.50
52739;DHT22;52466;40.122;18.318;2022-07-29T14:48:59;35.30;36.70
52739;DHT22;52466;40.122;18.318;2022-07-29T14:52:07;35.10;37.10
52739;DHT22;52466;40.122;18.318;2022-07-29T14:55:15;35.10;37.10
52739;DHT22;52466;40.122;18.318;2022-07-29T14:58:22;35.00;36.90
52739;DHT22;52466;40.122;18.318;2022-07-29T15:01:30;35.10;36.80
52739;DHT22;52466;40.122;18.318;2022-07-29T15:04:38;35.00;36.90
52739;DHT22;52466;40.122;18.318;2022-07-29T15:07:45;35.00;37.10
52739;DHT22;52466;40.122;18.318;2022-07-29T15:10:53;35.00;37.80
52739;DHT22;52466;40.122;18.318;2022-07-29T15:14:01;34.90;37.80
52739;DHT22;52466;40.122;18.318;2022-07-29T15:17:09;34.90;37.50
52739;DHT22;52466;40.122;18.318;2022-07-29T15:20:16;34.90;37.50
52739;DHT22;52466;40.122;18.318;2022-07-29T15:23:24;34.90;37.40
52739;DHT22;52466;40.122;18.318;2022-07-29T15:26:32;34.90;37.60
52739;DHT22;52466;40.122;18.318;2022-07-29T15:29:41;34.90;38.00
52739;DHT22;52466;40.122;18.318;2022-07-29T15:32:49;34.90;38.40
52739;DHT22;52466;40.122;18.318;2022-07-29T15:35:57;34.90;38.60
52739;DHT22;52466;40.122;18.318;2022-07-29T15:39:05;34.90;38.00
52739;DHT22;52466;40.122;18.318;2022-07-29T15:42:12;34.90;37.70
52739;DHT22;52466;40.122;18.318;2022-07-29T15:45:20;34.90;37.80
52739;DHT22;52466;40.122;18.318;2022-07-29T15:48:28;34.80;38.10
52739;DHT22;52466;40.122;18.318;2022-07-29T15:51:36;34.60;38.30
52739;DHT22;52466;40.122;18.318;2022-07-29T15:54:44;34.50;38.60
52739;DHT22;52466;40.122;18.318;2022-07-29T15:57:52;34.50;38.70
52739;DHT22;52466;40.122;18.318;2022-07-29T16:01:00;34.40;38.70
52739;DHT22;52466;40.122;18.318;2022-07-29T16:04:07;34.40;38.90
52739;DHT22;52466;40.122;18.318;2022-07-29T16:07:15;34.30;38.90
52739;DHT22;52466;40.122;18.318;2022-07-29T16:10:23;34.20;39.00
52739;DHT22;52466;40.122;18.318;2022-07-29T16:13:30;34.10;39.00
52739;DHT22;52466;40.122;18.318;2022-07-29T16:16:38;34.00;39.20
52739;DHT22;52466;40.122;18.318;2022-07-29T16:19:47;34.00;39.30
52739;DHT22;52466;40.122;18.318;2022-07-29T16:22:54;34.00;39.50
52739;DHT22;52466;40.122;18.318;2022-07-29T16:26:02;33.90;39.60
52739;DHT22;52466;40.122;18.318;2022-07-29T16:29:10;33.80;39.70
52739;DHT22;52466;40.122;18.318;2022-07-29T16:32:17;33.70;39.90
52739;DHT22;52466;40.122;18.318;2022-07-29T16:35:25;33.70;40.00
52739;DHT22;52466;40.122;18.318;2022-07-29T16:38:33;33.60;40.20
52739;DHT22;52466;40.122;18.318;2022-07-29T16:41:41;33.60;40.30
52739;DHT22;52466;40.122;18.318;2022-07-29T16:44:49;33.50;40.40
52739;DHT22;52466;40.122;18.318;2022-07-29T16:47:56;33.50;40.60
52739;DHT22;52466;40.122;18.318;2022-07-29T16:51:05;33.50;40.90
52739;DHT22;52466;40.122;18.318;2022-07-29T16:54:13;33.50;41.20
52739;DHT22;52466;40.122;18.318;2022-07-29T16:57:21;33.40;41.20
52739;DHT22;52466;40.122;18.318;2022-07-29T17:00:29;33.30;41.20
52739;DHT22;52466;40.122;18.318;2022-07-29T17:03:36;33.20;41.50
52739;DHT22;52466;40.122;18.318;2022-07-29T17:07:04;33.10;42.00
52739;DHT22;52466;40.122;18.318;2022-07-29T17:10:12;32.90;42.30
52739;DHT22;52466;40.122;18.318;2022-07-29T17:13:19;32.80;42.30
52739;DHT22;52466;40.122;18.318;2022-07-29T17:16:28;32.70;42.40
52739;DHT22;52466;40.122;18.318;2022-07-29T17:19:37;32.70;42.50
52739;DHT22;52466;40.122;18.318;2022-07-29T17:22:45;32.80;42.50
52739;DHT22;52466;40.122;18.318;2022-07-29T17:25:53;32.70;42.60
52739;DHT22;52466;40.122;18.318;2022-07-29T17:29:00;32.70;42.80
52739;DHT22;52466;40.122;18.318;2022-07-29T17:32:09;32.70;42.90
52739;DHT22;52466;40.122;18.318;2022-07-29T17:35:16;32.70;43.10
52739;DHT22;52466;40.122;18.318;2022-07-29T17:38:43;32.60;43.30
52739;DHT22;52466;40.122;18.318;2022-07-29T17:41:51;32.50;43.40
52739;DHT22;52466;40.122;18.318;2022-07-29T17:44:58;32.50;43.70
52739;DHT22;52466;40.122;18.318;2022-07-29T17:48:08;32.30;44.10
52739;DHT22;52466;40.122;18.318;2022-07-29T17:54:38;32.00;44.80
52739;DHT22;52466;40.122;18.318;2022-07-29T17:57:46;31.90;45.10
52739;DHT22;52466;40.122;18.318;2022-07-29T18:00:54;31.70;45.40
52739;DHT22;52466;40.122;18.318;2022-07-29T18:03:57;31.60;45.80
52739;DHT22;52466;40.122;18.318;2022-07-29T18:07:05;31.50;46.10
52739;DHT22;52466;40.122;18.318;2022-07-29T18:10:13;31.40;46.30
52739;DHT22;52466;40.122;18.318;2022-07-29T18:13:21;31.30;46.50
52739;DHT22;52466;40.122;18.318;2022-07-29T18:16:29;31.30;46.60
52739;DHT22;52466;40.122;18.318;2022-07-29T18:19:32;31.20;46.70
52739;DHT22;52466;40.122;18.318;2022-07-29T18:26:20;31.20;47.00
52739;DHT22;52466;40.122;18.318;2022-07-29T18:29:23;31.00;47.20
52739;DHT22;52466;40.122;18.318;2022-07-29T18:32:31;31.00;47.30
52739;DHT22;52466;40.122;18.318;2022-07-29T18:35:38;31.00;47.50
52739;DHT22;52466;40.122;18.318;2022-07-29T18:38:46;31.00;47.70
52739;DHT22;52466;40.122;18.318;2022-07-29T18:41:54;31.00;47.90
52739;DHT22;52466;40.122;18.318;2022-07-29T18:45:02;31.00;48.10
52739;DHT22;52466;40.122;18.318;2022-07-29T18:48:09;30.90;48.30
52739;DHT22;52466;40.122;18.318;2022-07-29T18:51:43;30.90;48.50
52739;DHT22;52466;40.122;18.318;2022-07-29T18:54:51;30.80;49.00
52739;DHT22;52466;40.122;18.318;2022-07-29T18:58:01;30.80;49.20
52739;DHT22;52466;40.122;18.318;2022-07-29T19:01:09;30.80;49.40
52739;DHT22;52466;40.122;18.318;2022-07-29T19:04:17;30.70;49.60
52739;DHT22;52466;40.122;18.318;2022-07-29T19:07:25;30.70;49.70
52739;DHT22;52466;40.122;18.318;2022-07-29T19:10:33;30.60;49.90
52739;DHT22;52466;40.122;18.318;2022-07-29T19:13:42;30.50;50.10
52739;DHT22;52466;40.122;18.318;2022-07-29T19:16:50;30.50;50.40
52739;DHT22;52466;40.122;18.318;2022-07-29T19:19:57;30.40;50.50
52739;DHT22;52466;40.122;18.318;2022-07-29T19:23:05;30.40;50.50
52739;DHT22;52466;40.122;18.318;2022-07-29T19:26:13;30.40;50.60
52739;DHT22;52466;40.122;18.318;2022-07-29T19:29:21;30.30;50.80
52739;DHT22;52466;40.122;18.318;2022-07-29T19:32:29;30.20;51.00
52739;DHT22;52466;40.122;18.318;2022-07-29T19:35:37;30.10;51.30
52739;DHT22;52466;40.122;18.318;2022-07-29T19:38:45;30.10;51.60
52739;DHT22;52466;40.122;18.318;2022-07-29T19:41:52;30.10;51.80
52739;DHT22;52466;40.122;18.318;2022-07-29T19:45:02;30.10;51.90
52739;DHT22;52466;40.122;18.318;2022-07-29T19:48:10;30.10;52.00
52739;DHT22;52466;40.122;18.318;2022-07-29T19:51:20;30.10;52.20
52739;DHT22;52466;40.122;18.318;2022-07-29T19:54:22;30.10;52.40
52739;DHT22;52466;40.122;18.318;2022-07-29T19:57:31;30.10;52.70
52739;DHT22;52466;40.122;18.318;2022-07-29T20:00:39;30.10;52.80
52739;DHT22;52466;40.122;18.318;2022-07-29T20:03:43;30.10;52.80
52739;DHT22;52466;40.122;18.318;2022-07-29T20:06:48;30.00;52.90
52739;DHT22;52466;40.122;18.318;2022-07-29T20:09:56;30.00;53.10
52739;DHT22;52466;40.122;18.318;2022-07-29T20:13:05;29.90;53.40
52739;DHT22;52466;40.122;18.318;2022-07-29T20:16:18;29.80;53.70
52739;DHT22;52466;40.122;18.318;2022-07-29T20:19:28;29.80;54.10
52739;DHT22;52466;40.122;18.318;2022-07-29T20:22:37;29.80;54.30
52739;DHT22;52466;40.122;18.318;2022-07-29T20:25:44;29.80;54.50
52739;DHT22;52466;40.122;18.318;2022-07-29T20:28:52;29.80;54.60
52739;DHT22;52466;40.122;18.318;2022-07-29T20:32:00;29.80;54.60
52739;DHT22;52466;40.122;18.318;2022-07-29T20:35:08;29.70;54.70